メインページ
METAR-TAF:

METAR-TAF

空港 :

ラロトンガ国際空港

ラロトンガ島, クック諸島

緯度: 21-12S, 経度: 159-49W, 海抜: 7m

現時点の気象観測

当レポートは9分前の07:00(UTC)に作成
の風 4kt、東/北東から南東の間で変化する
気温 25°C
湿度 100%
気圧 1011 hPa
視程10km以上

METAR: NCRG 240700Z AUTO 09004KT 070V140 9999 SCT010/// 25/25 Q1011

時間: 21:09 (07:09 UTC)

予報

当レポートは1時間48分前の05:21(UTC)に作成
予報は24日の 06時(UTC)から 25日の 06時(UTC)まで有効
の風 5kt
視程10km以上
高度1500ftの雲はほとんどない
確率 30% :
24日の 12時(UTC)から 24日の 18時(UTC)まで一時的に
視程: 5000m
高度1500ftの千切れ雲あり
にわか雨

TAF: NCRG 240521Z 2406/2506 10005KT 9999 FEW015 PROB30 TEMPO 2412/2418 5000 SHRA BKN015

4,000以上の空港の気象観測と天気予報(METAR報とTAF報)

利用可能な観測所は地図上に黄色い丸と赤い丸で示す。

丸の上にカーソルを重ねると観測所名を参照できる。

次にクリックすると気象観測と天気予報を参照できる。

マップの切り替え:黒色「×」印の緑ボタンをクリックして拡大、「-」印の緑ボタンをクリックして縮小、緑色の三角印をクリックして隣りの地図に切り替え


METAR-TAF: